createdAt,value
2022-11-03T00:01:58.430Z,89.03
2022-11-03T00:04:25.122Z,88.96
2022-11-03T00:06:53.707Z,89.04
2022-11-03T00:09:21.619Z,88.59
2022-11-03T00:11:50.608Z,88.48
2022-11-03T00:14:17.429Z,88.86
2022-11-03T00:16:44.178Z,87.93
2022-11-03T00:19:11.436Z,88.28
2022-11-03T00:21:38.216Z,88.21
2022-11-03T00:24:05.304Z,88.12
2022-11-03T00:26:33.313Z,87.99
2022-11-03T00:29:07.835Z,87.57
2022-11-03T00:31:35.946Z,88.36
2022-11-03T00:34:03.329Z,88.08
2022-11-03T00:36:38.536Z,88.03
2022-11-03T00:39:05.875Z,88.16
2022-11-03T00:41:32.804Z,87.88
2022-11-03T00:43:59.587Z,88.31
2022-11-03T00:46:26.785Z,88.11
2022-11-03T00:48:53.260Z,88.08
2022-11-03T00:51:24.826Z,87.76
2022-11-03T00:53:59.210Z,88.21
2022-11-03T00:56:33.414Z,87.75
2022-11-03T00:59:01.024Z,88.21
2022-11-03T01:01:32.767Z,88.16
2022-11-03T01:04:17.664Z,87.64
2022-11-03T01:06:52.010Z,87.52
2022-11-03T01:09:22.543Z,87.49
2022-11-03T01:12:11.465Z,88.06
2022-11-03T01:14:48.968Z,87.49
2022-11-03T01:17:21.352Z,87.77
2022-11-03T01:19:47.924Z,87.18
2022-11-03T01:22:15.281Z,87.16
2022-11-03T01:24:42.456Z,87.27
2022-11-03T01:27:20.494Z,87.21
2022-11-03T01:29:46.959Z,87.13
2022-11-03T01:32:13.684Z,87.42
2022-11-03T01:34:40.191Z,87.21
2022-11-03T01:37:07.758Z,87.17
2022-11-03T01:39:34.264Z,87.44
2022-11-03T01:42:00.916Z,86.95
2022-11-03T01:44:35.773Z,86.66
2022-11-03T01:47:07.555Z,86.67
2022-11-03T01:49:42.367Z,86.53
2022-11-03T01:52:28.100Z,87.02
2022-11-03T01:55:02.367Z,87.32
2022-11-03T01:57:34.823Z,87.04
2022-11-03T02:00:01.580Z,87.33
2022-11-03T02:02:28.545Z,87.00
2022-11-03T02:04:56.112Z,86.95
2022-11-03T02:07:26.408Z,87.02
2022-11-03T02:09:52.932Z,86.96
2022-11-03T02:12:21.356Z,86.95
2022-11-03T02:15:04.703Z,87.45
2022-11-03T02:17:32.710Z,86.88
2022-11-03T02:20:05.474Z,87.07
2022-11-03T02:22:57.209Z,86.97
2022-11-03T02:25:41.879Z,87.16
2022-11-03T02:28:08.580Z,87.14
2022-11-03T02:30:40.077Z,87.24
2022-11-03T02:33:20.658Z,87.27
2022-11-03T02:35:53.178Z,87.27
2022-11-03T02:38:20.854Z,86.72
2022-11-03T02:40:50.387Z,87.34
2022-11-03T02:43:17.014Z,87.43
2022-11-03T02:45:43.892Z,87.52
2022-11-03T02:48:11.363Z,87.33
2022-11-03T02:50:37.888Z,87.30
2022-11-03T02:53:04.514Z,86.87
2022-11-03T02:55:35.802Z,87.23
2022-11-03T02:58:08.155Z,87.25
2022-11-03T03:00:40.993Z,87.37
2022-11-03T03:03:16.630Z,87.42
2022-11-03T03:05:45.504Z,87.63
2022-11-03T03:08:12.963Z,87.52
2022-11-03T03:10:41.502Z,87.32
2022-11-03T03:13:10.845Z,87.84
2022-11-03T03:16:09.594Z,87.40
2022-11-03T03:18:48.999Z,87.45
2022-11-03T03:21:19.888Z,87.47
2022-11-03T03:23:51.421Z,86.73
2022-11-03T03:26:23.398Z,87.00
2022-11-03T03:28:53.852Z,87.32
2022-11-03T03:31:21.604Z,87.25
2022-11-03T03:33:49.317Z,86.93
2022-11-03T03:36:17.900Z,87.25
2022-11-03T03:38:48.990Z,86.96
2022-11-03T03:41:22.027Z,87.52
2022-11-03T03:43:50.185Z,87.39
2022-11-03T03:46:17.221Z,87.60
2022-11-03T03:48:43.664Z,87.40
2022-11-03T03:51:11.491Z,87.54
2022-11-03T03:53:37.937Z,87.48
2022-11-03T03:56:05.803Z,87.92
2022-11-03T03:58:32.324Z,86.87
2022-11-03T04:00:58.837Z,87.81
2022-11-03T04:03:26.113Z,87.51
2022-11-03T04:05:55.559Z,87.79
2022-11-03T04:08:22.001Z,87.96
2022-11-03T04:11:07.023Z,88.01
2022-11-03T04:13:52.083Z,88.28
2022-11-03T04:16:37.096Z,88.00
2022-11-03T04:19:22.126Z,87.81
2022-11-03T04:22:07.239Z,88.26
2022-11-03T04:24:33.732Z,87.83
2022-11-03T04:27:17.797Z,87.95
2022-11-03T04:29:44.629Z,88.26
2022-11-03T04:32:16.197Z,88.76
2022-11-03T04:34:42.916Z,88.60
2022-11-03T04:37:12.378Z,88.66
2022-11-03T04:39:38.859Z,88.83
2022-11-03T04:42:20.041Z,89.34
2022-11-03T04:44:47.395Z,89.24
2022-11-03T04:47:15.342Z,89.58
2022-11-03T04:49:42.620Z,89.61
2022-11-03T04:52:20.529Z,89.34
2022-11-03T04:54:48.451Z,89.69
2022-11-03T04:57:16.189Z,89.66
2022-11-03T04:59:47.688Z,89.80
2022-11-03T05:02:19.269Z,89.75
2022-11-03T05:04:46.016Z,89.79
2022-11-03T05:07:23.816Z,89.87
2022-11-03T05:09:50.767Z,89.55
2022-11-03T05:12:18.220Z,89.88
2022-11-03T05:14:44.912Z,89.53
2022-11-03T05:17:23.893Z,89.55
2022-11-03T05:20:04.186Z,89.59
2022-11-03T05:22:39.620Z,89.69
2022-11-03T05:25:33.970Z,89.58
2022-11-03T05:28:00.569Z,89.93
2022-11-03T05:30:27.030Z,89.79
2022-11-03T05:32:53.487Z,89.91
2022-11-03T05:35:22.802Z,89.78
2022-11-03T05:37:50.188Z,89.46
2022-11-03T05:40:24.488Z,89.56
2022-11-03T05:42:57.257Z,89.41
2022-11-03T05:45:27.103Z,89.52
2022-11-03T05:47:54.561Z,89.11
2022-11-03T05:50:28.792Z,89.05
2022-11-03T05:52:58.748Z,89.10
2022-11-03T05:55:27.822Z,88.66
2022-11-03T05:57:57.969Z,88.55
2022-11-03T06:00:37.751Z,89.04
2022-11-03T06:03:05.014Z,88.23
2022-11-03T06:05:33.472Z,88.51
2022-11-03T06:08:06.555Z,88.45
2022-11-03T06:10:40.273Z,87.80
2022-11-03T06:13:25.435Z,88.32
2022-11-03T06:15:58.466Z,87.78
2022-11-03T06:18:35.201Z,88.07
2022-11-03T06:21:22.836Z,87.53
2022-11-03T06:23:49.282Z,87.34
2022-11-03T06:26:24.484Z,87.75
2022-11-03T06:28:51.374Z,88.03
2022-11-03T06:31:24.865Z,87.96
2022-11-03T06:33:52.775Z,87.77
2022-11-03T06:36:21.403Z,87.92
2022-11-03T06:38:52.820Z,87.96
2022-11-03T06:41:30.787Z,88.52
2022-11-03T06:43:58.350Z,87.64
2022-11-03T06:46:25.820Z,88.52
2022-11-03T06:48:53.395Z,87.49
2022-11-03T06:51:22.227Z,87.56
2022-11-03T06:53:50.392Z,87.38
2022-11-03T06:56:20.337Z,87.47
2022-11-03T06:58:48.852Z,87.16
2022-11-03T07:01:18.834Z,87.72
2022-11-03T07:03:45.826Z,87.65
2022-11-03T07:06:20.259Z,87.77
2022-11-03T07:08:48.673Z,87.16
2022-11-03T07:11:18.919Z,87.30
2022-11-03T07:13:46.991Z,87.54
2022-11-03T07:16:21.462Z,87.07
2022-11-03T07:18:47.917Z,87.29
2022-11-03T07:21:31.361Z,87.23
2022-11-03T07:24:00.109Z,87.61
2022-11-03T07:26:27.300Z,87.40
2022-11-03T07:28:54.052Z,87.54
2022-11-03T07:31:22.788Z,87.35
2022-11-03T07:33:49.569Z,87.07
2022-11-03T07:36:22.313Z,87.05
2022-11-03T07:38:52.987Z,87.54
2022-11-03T07:41:29.516Z,87.20
2022-11-03T07:44:00.011Z,87.56
2022-11-03T07:46:27.076Z,86.96
2022-11-03T07:48:57.736Z,87.08
2022-11-03T07:51:27.245Z,87.52
2022-11-03T07:53:57.118Z,87.51
2022-11-03T07:56:29.273Z,87.16
2022-11-03T07:58:59.660Z,87.14
2022-11-03T08:01:37.742Z,86.95
2022-11-03T08:04:06.290Z,86.85
2022-11-03T08:06:32.881Z,86.52
2022-11-03T08:08:59.351Z,87.23
2022-11-03T08:11:28.982Z,87.10
2022-11-03T08:13:56.502Z,87.25
2022-11-03T08:16:22.977Z,87.43
2022-11-03T08:18:49.751Z,87.31
2022-11-03T08:21:17.360Z,86.53
2022-11-03T08:23:47.318Z,86.69
2022-11-03T08:26:15.014Z,86.35
2022-11-03T08:28:41.539Z,86.08
2022-11-03T08:31:12.270Z,86.55
2022-11-03T08:33:39.595Z,86.45
2022-11-03T08:36:06.402Z,86.66
2022-11-03T08:38:32.871Z,86.68
2022-11-03T08:40:59.440Z,86.83
2022-11-03T08:43:26.191Z,86.43
2022-11-03T08:45:53.744Z,85.85
2022-11-03T08:48:27.369Z,85.83
2022-11-03T08:50:56.643Z,85.04
2022-11-03T08:53:24.228Z,85.71
2022-11-03T08:55:50.682Z,85.48
2022-11-03T08:58:17.181Z,85.32
2022-11-03T09:00:43.635Z,86.32
2022-11-03T09:03:10.191Z,86.06
2022-11-03T09:05:36.718Z,86.40
2022-11-03T09:10:49.606Z,85.79
2022-11-03T09:13:16.066Z,86.15
2022-11-03T09:15:42.529Z,85.18
2022-11-03T09:18:09.279Z,85.58
2022-11-03T09:20:36.081Z,85.47
2022-11-03T09:23:02.581Z,85.24
2022-11-03T09:25:29.102Z,85.21
2022-11-03T09:27:55.566Z,84.47
2022-11-03T09:30:22.142Z,84.42
2022-11-03T09:32:48.632Z,83.86
2022-11-03T09:35:16.283Z,83.84
2022-11-03T09:37:43.065Z,83.22
2022-11-03T09:40:10.895Z,83.28
2022-11-03T09:42:38.179Z,82.95
2022-11-03T09:45:05.923Z,82.84
2022-11-03T09:47:34.051Z,82.41
2022-11-03T09:50:00.871Z,82.02
2022-11-03T09:52:27.593Z,82.61
2022-11-03T09:54:55.542Z,82.19
2022-11-03T09:57:22.571Z,81.95
2022-11-03T09:59:50.238Z,81.83
2022-11-03T10:02:43.304Z,81.79
2022-11-03T10:05:13.820Z,81.73
2022-11-03T10:07:40.413Z,82.21
2022-11-03T10:10:07.188Z,82.15
2022-11-03T10:12:36.685Z,81.91
2022-11-03T10:15:03.462Z,82.25
2022-11-03T10:17:30.907Z,82.17
2022-11-03T10:19:58.318Z,82.03
2022-11-03T10:22:24.793Z,82.08
2022-11-03T10:25:30.027Z,81.76
2022-11-03T10:28:15.153Z,82.11
2022-11-03T10:31:11.128Z,82.23
2022-11-03T10:33:40.426Z,82.41
2022-11-03T10:36:16.761Z,82.41
2022-11-03T10:38:43.678Z,82.09
2022-11-03T10:41:31.177Z,82.56
2022-11-03T10:44:12.768Z,82.31
2022-11-03T10:46:55.547Z,81.65
2022-11-03T10:49:22.115Z,81.59
2022-11-03T10:51:50.818Z,81.20
2022-11-03T10:54:19.697Z,81.22
2022-11-03T10:56:46.790Z,81.03
2022-11-03T10:59:31.763Z,80.81
2022-11-03T11:01:59.450Z,81.42
2022-11-03T11:04:26.118Z,81.52
2022-11-03T11:06:52.755Z,81.98
2022-11-03T11:09:27.628Z,81.75
2022-11-03T11:12:15.879Z,81.44
2022-11-03T11:14:59.995Z,81.72
2022-11-03T11:17:46.902Z,81.59
2022-11-03T11:20:22.036Z,81.39
2022-11-03T11:22:49.547Z,81.29
2022-11-03T11:25:17.929Z,81.26
2022-11-03T11:27:44.295Z,81.68
2022-11-03T11:30:30.541Z,81.74
2022-11-03T11:33:01.765Z,82.05
2022-11-03T11:35:28.105Z,81.31
2022-11-03T11:37:54.737Z,81.35
2022-11-03T11:40:24.133Z,81.04
2022-11-03T11:43:11.033Z,79.70
2022-11-03T11:46:15.170Z,78.66
2022-11-03T11:48:41.707Z,78.50
2022-11-03T11:51:10.074Z,77.60
2022-11-03T11:53:48.160Z,77.99
2022-11-03T11:56:17.916Z,78.30
2022-11-03T11:58:49.880Z,78.03
2022-11-03T12:01:23.137Z,78.95
2022-11-03T12:03:51.237Z,79.00
2022-11-03T12:06:17.864Z,79.61
2022-11-03T12:08:44.626Z,80.04
2022-11-03T12:11:12.363Z,79.84
2022-11-03T12:13:43.927Z,80.48
2022-11-03T12:16:29.065Z,80.93
2022-11-03T12:18:56.103Z,81.31
2022-11-03T12:21:49.359Z,81.67
2022-11-03T12:24:26.140Z,81.78
2022-11-03T12:26:52.599Z,81.76
2022-11-03T12:29:19.048Z,82.25
2022-11-03T12:31:47.201Z,83.06
2022-11-03T12:34:13.655Z,82.63
2022-11-03T12:36:40.155Z,82.62
2022-11-03T12:39:06.612Z,82.95
2022-11-03T12:41:33.132Z,82.98
2022-11-03T12:43:59.669Z,82.81
2022-11-03T12:46:26.238Z,83.04
2022-11-03T12:48:52.807Z,81.91
2022-11-03T12:51:21.373Z,82.75
2022-11-03T12:53:47.873Z,82.50
2022-11-03T12:56:15.849Z,82.94
2022-11-03T12:58:42.412Z,81.97
2022-11-03T13:01:09.341Z,80.91
2022-11-03T13:03:36.144Z,79.74
2022-11-03T13:06:04.703Z,79.46
2022-11-03T13:08:31.810Z,78.73
2022-11-03T13:10:58.676Z,77.50
2022-11-03T13:13:25.450Z,78.91
2022-11-03T13:15:53.067Z,79.76
2022-11-03T13:18:20.345Z,80.17
2022-11-03T13:20:46.944Z,81.16
2022-11-03T13:23:15.289Z,80.80
2022-11-03T13:25:46.358Z,81.68
2022-11-03T13:28:12.949Z,81.85
2022-11-03T13:30:40.358Z,81.88
2022-11-03T13:33:07.188Z,82.68
2022-11-03T13:35:33.913Z,82.84
2022-11-03T13:38:00.459Z,83.29
2022-11-03T13:40:54.862Z,82.68
2022-11-03T13:43:13.392Z,83.27
2022-11-03T13:45:39.836Z,82.77
2022-11-03T13:50:53.650Z,83.16
2022-11-03T13:56:08.859Z,82.72
2022-11-03T14:01:23.635Z,82.51
2022-11-03T14:06:36.821Z,82.14
2022-11-03T14:09:03.367Z,82.13
2022-11-03T14:11:48.332Z,82.28
2022-11-03T14:14:14.830Z,82.90
2022-11-03T14:16:41.311Z,82.35
2022-11-03T14:19:07.867Z,82.54
2022-11-03T14:21:37.215Z,82.80
2022-11-03T14:24:05.346Z,82.18
2022-11-03T14:26:42.221Z,82.95
2022-11-03T14:29:09.463Z,82.64
2022-11-03T14:31:35.997Z,82.77
2022-11-03T14:34:02.465Z,82.41
2022-11-03T14:36:29.047Z,82.74
2022-11-03T14:38:55.625Z,82.68
2022-11-03T14:41:40.723Z,82.81
2022-11-03T14:44:07.216Z,82.42
2022-11-03T14:46:33.700Z,82.62
2022-11-03T14:49:01.749Z,82.52
2022-11-03T14:51:29.077Z,82.92
2022-11-03T14:53:56.833Z,82.66
2022-11-03T14:56:23.572Z,82.96
2022-11-03T14:58:50.141Z,82.92
2022-11-03T15:01:19.903Z,82.57
2022-11-03T15:03:46.636Z,82.28
2022-11-03T15:06:13.130Z,81.78
2022-11-03T15:08:40.293Z,81.25
2022-11-03T15:11:08.199Z,81.11
2022-11-03T15:13:39.640Z,81.03
2022-11-03T15:16:11.384Z,80.75
2022-11-03T15:18:37.845Z,80.45
2022-11-03T15:21:04.799Z,80.08
2022-11-03T15:26:18.044Z,80.02
2022-11-03T15:28:44.515Z,79.84
2022-11-03T15:31:10.981Z,79.60
2022-11-03T15:33:37.437Z,79.59
2022-11-03T15:36:04.589Z,78.76
2022-11-03T15:38:31.275Z,79.25
2022-11-03T15:41:15.350Z,78.87
2022-11-03T15:43:43.256Z,79.01
2022-11-03T15:46:10.461Z,78.41
2022-11-03T15:48:37.305Z,78.73
2022-11-03T15:51:04.188Z,79.27
2022-11-03T15:53:30.752Z,79.27
2022-11-03T15:55:57.205Z,78.99
2022-11-03T15:58:23.727Z,78.68
2022-11-03T16:00:50.225Z,78.39
2022-11-03T16:03:16.791Z,78.97
2022-11-03T16:05:43.347Z,79.21
2022-11-03T16:08:10.483Z,79.24
2022-11-03T16:10:37.207Z,79.25
2022-11-03T16:13:03.668Z,79.85
2022-11-03T16:15:30.127Z,80.23
2022-11-03T16:18:02.549Z,80.41
2022-11-03T16:20:30.603Z,80.24
2022-11-03T16:22:57.507Z,80.12
2022-11-03T16:25:24.370Z,80.08
2022-11-03T16:27:50.915Z,80.39
2022-11-03T16:30:17.510Z,80.20
2022-11-03T16:32:44.020Z,80.17
2022-11-03T16:35:10.485Z,79.82
2022-11-03T16:37:37.403Z,80.02
2022-11-03T16:40:04.951Z,80.01
2022-11-03T16:42:38.062Z,79.99
2022-11-03T16:45:15.138Z,80.47
2022-11-03T16:47:41.596Z,80.57
2022-11-03T16:50:08.154Z,80.51
2022-11-03T16:52:34.668Z,80.36
2022-11-03T16:55:01.173Z,80.99
2022-11-03T16:57:27.634Z,80.40
2022-11-03T16:59:54.093Z,80.87
2022-11-03T17:02:20.631Z,80.40
2022-11-03T17:04:47.110Z,80.91
2022-11-03T17:07:13.560Z,81.10
2022-11-03T17:09:40.003Z,81.43
2022-11-03T17:12:06.605Z,82.14
2022-11-03T17:14:33.053Z,82.41
2022-11-03T17:16:59.508Z,82.37
2022-11-03T17:19:25.995Z,82.73
2022-11-03T17:21:52.473Z,83.08
2022-11-03T17:24:18.981Z,83.33
2022-11-03T17:26:56.113Z,83.71
2022-11-03T17:29:29.050Z,83.58
2022-11-03T17:31:55.504Z,83.41
2022-11-03T17:34:24.017Z,84.17
2022-11-03T17:36:50.870Z,84.61
2022-11-03T17:39:28.896Z,85.03
2022-11-03T17:42:01.900Z,84.47
2022-11-03T17:44:28.354Z,85.16
2022-11-03T17:46:54.837Z,85.22
2022-11-03T17:49:21.323Z,84.80
2022-11-03T17:51:47.776Z,85.46
2022-11-03T17:54:15.866Z,86.24
2022-11-03T17:56:42.535Z,86.07
2022-11-03T17:59:14.461Z,86.50
2022-11-03T18:01:41.030Z,86.91
2022-11-03T18:06:41.754Z,87.33
2022-11-03T18:09:08.376Z,87.59
2022-11-03T18:11:56.517Z,87.63
2022-11-03T18:14:23.723Z,87.36
2022-11-03T18:16:51.129Z,87.54
2022-11-03T18:19:17.880Z,87.96
2022-11-03T18:21:44.498Z,88.48
2022-11-03T18:24:18.944Z,87.87
2022-11-03T18:26:45.522Z,88.41
2022-11-03T18:29:11.988Z,88.08
2022-11-03T18:31:43.523Z,88.16
2022-11-03T18:34:14.780Z,88.61
2022-11-03T18:36:41.483Z,89.29
2022-11-03T18:39:11.674Z,89.39
2022-11-03T18:41:41.192Z,89.37
2022-11-03T18:44:22.624Z,88.86
2022-11-03T18:46:49.262Z,89.49
2022-11-03T18:49:16.064Z,90.00
2022-11-03T18:51:49.668Z,90.16
2022-11-03T18:54:16.795Z,89.93
2022-11-03T18:56:43.416Z,90.56
2022-11-03T18:59:27.921Z,90.18
2022-11-03T19:01:54.923Z,90.26
2022-11-03T19:04:21.680Z,90.98
2022-11-03T19:06:49.359Z,90.46
2022-11-03T19:09:19.577Z,90.49
2022-11-03T19:11:47.547Z,90.91
2022-11-03T19:14:21.273Z,91.57
2022-11-03T19:17:17.189Z,91.53
2022-11-03T19:22:14.277Z,91.30
2022-11-03T19:24:43.524Z,91.16
2022-11-03T19:27:25.748Z,90.95
2022-11-03T19:29:52.566Z,91.01
2022-11-03T19:32:25.649Z,92.08
2022-11-03T19:34:57.776Z,91.57
2022-11-03T19:37:24.796Z,92.26
2022-11-03T19:39:51.294Z,92.46
2022-11-03T19:42:28.815Z,92.06
2022-11-03T19:44:59.372Z,92.59
2022-11-03T19:47:34.896Z,92.53
2022-11-03T19:50:03.154Z,92.83
2022-11-03T19:52:30.573Z,92.99
2022-11-03T19:54:57.920Z,92.64
2022-11-03T19:57:24.478Z,92.94
2022-11-03T19:59:50.944Z,92.20
2022-11-03T20:02:18.426Z,92.77
2022-11-03T20:04:47.199Z,93.29
2022-11-03T20:07:17.841Z,92.54
2022-11-03T20:09:44.885Z,92.91
2022-11-03T20:12:15.923Z,93.25
2022-11-03T20:14:42.397Z,93.04
2022-11-03T20:17:17.217Z,93.70
2022-11-03T20:19:44.091Z,93.57
2022-11-03T20:22:16.969Z,93.13
2022-11-03T20:24:44.749Z,93.60
2022-11-03T20:27:11.702Z,93.04
2022-11-03T20:29:39.223Z,93.58
2022-11-03T20:32:05.661Z,93.55
2022-11-03T20:34:32.122Z,93.21
2022-11-03T20:37:02.878Z,92.80
2022-11-03T20:39:31.988Z,93.83
2022-11-03T20:41:58.576Z,93.62
2022-11-03T20:44:25.044Z,93.41
2022-11-03T20:46:51.547Z,93.68
2022-11-03T20:49:17.995Z,93.22
2022-11-03T20:51:45.715Z,93.31
2022-11-03T20:54:17.904Z,92.80
2022-11-03T20:56:44.607Z,93.71
2022-11-03T20:59:16.727Z,93.18
2022-11-03T21:01:43.738Z,93.82
2022-11-03T21:04:32.331Z,94.10
2022-11-03T21:06:58.929Z,93.58
2022-11-03T21:09:25.387Z,93.45
2022-11-03T21:11:52.457Z,93.09
2022-11-03T21:14:22.301Z,93.20
2022-11-03T21:17:07.566Z,93.29
2022-11-03T21:19:52.532Z,93.90
2022-11-03T21:22:57.667Z,93.15
2022-11-03T21:25:25.001Z,92.91
2022-11-03T21:27:53.470Z,92.90
2022-11-03T21:30:20.144Z,91.82
2022-11-03T21:32:48.015Z,92.53
2022-11-03T21:35:17.285Z,91.84
2022-11-03T21:37:43.752Z,92.49
2022-11-03T21:40:11.023Z,91.89
2022-11-03T21:42:56.059Z,92.28
2022-11-03T21:45:22.507Z,92.60
2022-11-03T21:48:13.105Z,92.70
2022-11-03T21:50:41.164Z,92.74
2022-11-03T21:53:08.143Z,92.92
2022-11-03T21:55:35.104Z,92.32
2022-11-03T21:58:02.153Z,92.37
2022-11-03T22:00:28.745Z,92.89
2022-11-03T22:02:55.652Z,92.69
2022-11-03T22:05:22.106Z,92.34
2022-11-03T22:07:48.574Z,92.35
2022-11-03T22:10:15.018Z,92.53
2022-11-03T22:12:41.471Z,92.43
2022-11-03T22:15:27.055Z,92.35
2022-11-03T22:17:53.505Z,92.33
2022-11-03T22:20:38.681Z,91.42
2022-11-03T22:23:23.901Z,91.70
2022-11-03T22:26:09.017Z,91.59
2022-11-03T22:28:35.469Z,92.10
2022-11-03T22:31:30.649Z,91.68
2022-11-03T22:34:15.630Z,91.62
2022-11-03T22:36:42.069Z,90.66
2022-11-03T22:39:27.116Z,90.96
2022-11-03T22:42:12.010Z,91.13
2022-11-03T22:44:56.932Z,90.82
2022-11-03T22:47:23.417Z,90.44
2022-11-03T22:49:49.871Z,90.84
2022-11-03T22:52:16.374Z,90.65
2022-11-03T22:54:42.813Z,90.36
2022-11-03T22:57:11.314Z,90.27
2022-11-03T22:59:37.770Z,90.19
2022-11-03T23:02:04.382Z,90.70
2022-11-03T23:04:30.949Z,90.27
2022-11-03T23:06:57.409Z,90.23
2022-11-03T23:09:23.840Z,90.25
2022-11-03T23:11:51.329Z,89.60
2022-11-03T23:14:18.260Z,89.10
2022-11-03T23:16:45.001Z,89.38
2022-11-03T23:19:31.642Z,89.84
2022-11-03T23:21:58.350Z,90.24
2022-11-03T23:24:45.391Z,89.51
2022-11-03T23:27:12.833Z,89.72
2022-11-03T23:29:39.299Z,89.39
2022-11-03T23:32:05.812Z,89.11
2022-11-03T23:34:32.301Z,89.09
2022-11-03T23:36:59.328Z,88.81
2022-11-03T23:39:25.819Z,89.26
2022-11-03T23:41:52.263Z,88.80
2022-11-03T23:44:18.806Z,88.96
2022-11-03T23:47:03.885Z,88.84
2022-11-03T23:49:30.451Z,88.24
2022-11-03T23:51:57.091Z,88.65
2022-11-03T23:54:23.706Z,88.25
2022-11-03T23:57:08.713Z,89.18
2022-11-03T23:59:35.259Z,88.39
